Terminal Aerodrome Forecast
Issued by NWS Central Illinois

Home | Current Version | Previous Version | Text Only | Print | Product List | Glossary On
Versions: 1 2 3 4 5 6 7 8 9 10 11 12 13 14 15 16 17 18 19
484
FTUS43 KILX 040628 AAA
TAFPIA
TAF AMD
KPIA 040628Z 0406/0506 24008KT P6SM OVC070
      TEMPO 0406/0408 5SM -TSRA BR BKN050CB
     FM041000 30011KT P6SM SCT050
     FM041300 35012G19KT P6SM SKC
     FM041800 34015G23KT P6SM SCT050
     FM050100 34006KT P6SM SKC=

USA.gov is the U.S. government's official web portal to all federal, state and local government web resources and services.